Time;durP1;ratioP1;P1;durP2;ratioP2;P2;SDS_P1;SDS_P2;PMS_P1;PMS_P2;Temp;Humidity;BMP_temperature;BMP_pressure;BME280_temperature;BME280_humidity;BME280_pressure;Samples;Min_cycle;Max_cycle;Signal;HPM_P1;HPM_P2
2020/12/23 00:00:09;;;;;;;3.23;1.33;;;14.20;99.90;;;;;;5077684;28;20462;-81
2020/12/23 00:02:36;;;;;;;3.20;1.43;;;14.20;99.90;;;;;;5077784;28;20463;-81
2020/12/23 00:05:05;;;;;;;2.63;1.00;;;14.10;99.90;;;;;;5077208;28;20518;-78
2020/12/23 00:07:32;;;;;;;3.90;1.20;;;14.30;99.90;;;;;;5076741;28;20427;-80
2020/12/23 00:09:59;;;;;;;2.83;1.10;;;14.20;99.90;;;;;;5094368;28;20449;-83
2020/12/23 00:12:26;;;;;;;2.83;1.50;;;14.20;99.90;;;;;;5080370;28;21209;-83
2020/12/23 00:14:53;;;;;;;2.83;1.20;;;14.20;99.90;;;;;;5079699;28;20455;-84
2020/12/23 00:17:20;;;;;;;3.83;1.27;;;14.20;99.90;;;;;;5080409;28;20426;-84
2020/12/23 00:19:47;;;;;;;3.40;1.40;;;14.20;99.90;;;;;;5084363;28;20860;-81
2020/12/23 00:22:14;;;;;;;3.20;1.50;;;14.20;99.90;;;;;;5088564;28;20456;-84
2020/12/23 00:24:41;;;;;;;4.20;1.37;;;14.30;99.90;;;;;;5080015;28;20426;-81
2020/12/23 00:27:07;;;;;;;3.60;1.30;;;14.40;99.90;;;;;;5089203;22;20475;-81
2020/12/23 00:29:35;;;;;;;2.87;1.20;;;14.30;99.90;;;;;;5068291;28;20430;-82
2020/12/23 00:32:02;;;;;;;3.07;1.40;;;14.30;99.90;;;;;;5074226;28;20426;-80
2020/12/23 00:34:28;;;;;;;3.03;1.50;;;14.30;99.90;;;;;;5074437;28;20479;-81
2020/12/23 00:36:56;;;;;;;2.60;1.10;;;14.30;99.90;;;;;;5073938;28;20785;-80
2020/12/23 00:39:23;;;;;;;3.03;1.50;;;14.30;99.90;;;;;;5073466;28;20540;-81
2020/12/23 00:41:49;;;;;;;2.40;1.10;;;14.30;99.90;;;;;;5073468;28;20430;-81
2020/12/23 00:44:16;;;;;;;2.63;1.23;;;14.30;99.90;;;;;;5072543;28;20769;-80
2020/12/23 00:46:45;;;;;;;3.20;1.53;;;14.40;99.90;;;;;;5073817;28;20474;-89
2020/12/23 00:49:12;;;;;;;2.67;1.20;;;14.30;99.90;;;;;;5072979;28;20444;-80
2020/12/23 00:51:38;;;;;;;3.00;1.30;;;14.40;99.90;;;;;;5073171;28;20449;-82
2020/12/23 00:54:05;;;;;;;2.67;0.97;;;14.50;99.90;;;;;;5071985;28;20529;-80
2020/12/23 00:56:31;;;;;;;2.83;1.27;;;14.50;99.90;;;;;;5071328;28;20476;-80
2020/12/23 00:58:58;;;;;;;5.17;1.00;;;14.50;99.90;;;;;;5072387;28;20453;-80
2020/12/23 01:01:24;;;;;;;2.50;1.00;;;14.60;99.90;;;;;;5074760;28;20452;-80
2020/12/23 01:03:52;;;;;;;4.80;1.40;;;14.60;99.90;;;;;;5074757;28;20444;-81
2020/12/23 01:06:18;;;;;;;3.30;0.90;;;14.60;99.90;;;;;;5068435;28;20482;-81
2020/12/23 01:08:45;;;;;;;3.43;1.13;;;14.70;99.90;;;;;;5072580;28;20452;-80
2020/12/23 01:11:12;;;;;;;3.33;1.60;;;14.70;99.90;;;;;;5073193;28;20978;-80
2020/12/23 01:13:39;;;;;;;2.60;1.17;;;14.70;99.90;;;;;;5072807;28;20431;-80
2020/12/23 01:16:06;;;;;;;2.83;1.07;;;14.70;99.90;;;;;;5073439;28;20454;-80
2020/12/23 01:18:33;;;;;;;2.30;0.90;;;14.70;99.90;;;;;;5073613;28;20697;-80
2020/12/23 01:21:01;;;;;;;2.97;1.00;;;14.70;99.90;;;;;;5072798;28;20422;-81
2020/12/23 01:23:27;;;;;;;2.43;1.10;;;14.80;99.90;;;;;;5073477;28;20437;-80
2020/12/23 01:25:55;;;;;;;3.37;1.00;;;14.80;99.90;;;;;;5072810;28;20457;-80
2020/12/23 01:28:22;;;;;;;2.70;1.10;;;14.80;99.90;;;;;;5072847;28;20834;-81
2020/12/23 01:30:49;;;;;;;3.10;0.97;;;14.90;99.90;;;;;;5072937;28;20459;-80
2020/12/23 01:33:15;;;;;;;2.60;1.00;;;14.90;99.90;;;;;;5072872;28;20873;-82
2020/12/23 01:35:43;;;;;;;2.80;1.10;;;14.90;99.90;;;;;;5072191;28;20602;-81
2020/12/23 01:38:11;;;;;;;2.90;1.13;;;14.90;99.90;;;;;;5060746;28;20579;-81
2020/12/23 01:40:37;;;;;;;3.70;1.20;;;15.00;99.90;;;;;;5071319;28;20455;-80
2020/12/23 01:43:07;;;;;;;2.53;1.23;;;15.00;99.90;;;;;;5071248;28;20426;-81
2020/12/23 01:45:34;;;;;;;2.53;1.00;;;15.00;99.90;;;;;;5071631;28;20440;-81
2020/12/23 01:48:01;;;;;;;2.60;1.03;;;14.90;99.90;;;;;;5071757;28;20482;-81
2020/12/23 01:50:27;;;;;;;2.87;1.20;;;14.90;99.90;;;;;;5071793;28;20433;-81
2020/12/23 01:52:54;;;;;;;2.60;1.10;;;14.90;99.90;;;;;;5072783;28;20451;-80
2020/12/23 01:55:22;;;;;;;2.90;1.20;;;14.90;99.90;;;;;;5073267;28;20483;-81
2020/12/23 01:57:48;;;;;;;3.07;1.23;;;14.90;99.90;;;;;;5078200;28;20962;-81
2020/12/23 02:00:15;;;;;;;2.50;0.90;;;15.00;99.90;;;;;;5072860;28;20503;-80
2020/12/23 02:02:44;;;;;;;5.90;1.23;;;15.00;99.90;;;;;;5072760;28;20446;-80
2020/12/23 02:05:11;;;;;;;5.00;1.20;;;15.00;99.90;;;;;;5073029;28;20431;-81
2020/12/23 02:07:39;;;;;;;2.40;1.00;;;15.10;99.90;;;;;;5073074;28;20468;-81
2020/12/23 02:10:07;;;;;;;3.03;1.30;;;15.10;99.90;;;;;;5072719;28;20451;-80
2020/12/23 02:12:34;;;;;;;2.50;0.90;;;15.10;99.90;;;;;;5074865;28;20452;-81
2020/12/23 02:15:10;;;;;;;2.60;1.07;;;15.10;99.90;;;;;;5069983;28;20486;-81
2020/12/23 02:17:37;;;;;;;3.00;1.30;;;15.10;99.90;;;;;;5071645;28;20458;-81
2020/12/23 02:20:06;;;;;;;2.70;1.00;;;15.20;99.90;;;;;;5071817;28;20456;-80
2020/12/23 02:22:34;;;;;;;2.80;0.93;;;15.20;99.90;;;;;;5071947;28;20484;-81
2020/12/23 02:25:00;;;;;;;2.30;0.87;;;15.10;99.90;;;;;;5073905;28;20444;-82
2020/12/23 02:27:28;;;;;;;2.37;0.97;;;15.20;99.90;;;;;;5079703;28;20475;-80
2020/12/23 02:29:56;;;;;;;2.60;0.90;;;15.30;99.90;;;;;;5081249;28;20456;-82
2020/12/23 02:32:23;;;;;;;3.40;1.33;;;15.30;99.90;;;;;;5080041;28;20422;-80
2020/12/23 02:34:51;;;;;;;2.50;1.00;;;15.20;99.90;;;;;;5078379;28;20483;-81
2020/12/23 02:37:19;;;;;;;2.50;1.00;;;15.20;99.90;;;;;;5077616;28;20791;-80
2020/12/23 02:39:48;;;;;;;2.07;0.57;;;15.30;99.90;;;;;;5078885;28;20433;-81
2020/12/23 02:42:16;;;;;;;2.13;0.67;;;15.30;99.90;;;;;;5081401;28;20440;-82
2020/12/23 02:44:43;;;;;;;2.30;0.80;;;15.30;99.90;;;;;;5074856;28;20464;-82
2020/12/23 02:47:11;;;;;;;2.53;0.80;;;15.20;99.90;;;;;;5072569;28;20459;-81
2020/12/23 02:49:39;;;;;;;2.47;1.00;;;15.10;99.90;;;;;;5070840;28;20435;-81
2020/12/23 02:52:05;;;;;;;2.57;0.83;;;15.20;99.90;;;;;;5071405;28;20983;-80
2020/12/23 02:54:32;;;;;;;2.73;0.90;;;15.30;99.90;;;;;;5070407;28;20990;-81
2020/12/23 02:57:00;;;;;;;2.70;1.00;;;15.20;99.90;;;;;;5070979;28;20515;-81
2020/12/23 02:59:26;;;;;;;3.10;0.90;;;15.20;99.90;;;;;;5070608;28;20456;-80
2020/12/23 03:01:53;;;;;;;2.60;0.70;;;15.20;99.90;;;;;;5070772;28;20909;-80
2020/12/23 03:04:19;;;;;;;2.73;0.90;;;15.30;99.90;;;;;;5070842;28;20440;-80
2020/12/23 03:06:46;;;;;;;2.60;1.03;;;15.30;99.90;;;;;;5070229;28;20471;-81
2020/12/23 03:09:14;;;;;;;2.40;0.73;;;15.30;99.90;;;;;;5070759;28;20423;-80
2020/12/23 03:11:41;;;;;;;2.37;0.77;;;15.30;99.90;;;;;;5074873;28;20917;-81
2020/12/23 03:14:09;;;;;;;2.20;0.70;;;15.40;99.90;;;;;;5077767;28;20606;-79
2020/12/23 03:16:36;;;;;;;4.07;0.73;;;15.50;99.90;;;;;;5079506;28;20446;-80
2020/12/23 03:19:03;;;;;;;2.23;0.70;;;15.50;99.90;;;;;;5076768;28;20448;-79
2020/12/23 03:21:30;;;;;;;2.40;1.00;;;15.60;99.90;;;;;;5072757;28;20475;-80
2020/12/23 03:23:57;;;;;;;2.60;1.00;;;15.50;99.90;;;;;;5072149;28;20452;-80
2020/12/23 03:26:23;;;;;;;2.40;0.80;;;15.50;99.90;;;;;;5077197;28;20476;-80
2020/12/23 03:28:50;;;;;;;2.20;0.70;;;15.50;99.90;;;;;;5077689;28;20792;-80
2020/12/23 03:31:18;;;;;;;2.33;0.83;;;15.50;99.90;;;;;;5075362;28;20426;-80
2020/12/23 03:33:45;;;;;;;3.60;0.70;;;15.50;99.90;;;;;;5074377;28;20809;-81
2020/12/23 03:36:12;;;;;;;2.20;0.80;;;15.40;99.90;;;;;;5074364;28;20465;-80
2020/12/23 03:38:39;;;;;;;3.80;1.00;;;15.40;99.90;;;;;;5074289;28;21042;-80
2020/12/23 03:41:06;;;;;;;2.27;0.80;;;15.50;99.90;;;;;;5074363;28;20819;-80
2020/12/23 03:43:33;;;;;;;2.33;0.80;;;15.50;99.90;;;;;;5074632;28;20448;-80
2020/12/23 03:46:00;;;;;;;2.30;0.70;;;15.50;99.90;;;;;;5074898;28;20996;-81
2020/12/23 03:48:27;;;;;;;2.30;0.93;;;15.60;99.90;;;;;;5075415;28;20889;-80
2020/12/23 03:50:54;;;;;;;2.50;0.87;;;15.60;99.90;;;;;;5074801;28;20467;-81
2020/12/23 03:53:21;;;;;;;2.30;1.00;;;15.60;99.90;;;;;;5075070;28;20431;-80
2020/12/23 03:55:47;;;;;;;2.10;0.70;;;15.70;99.90;;;;;;5074401;28;20830;-81
2020/12/23 03:58:14;;;;;;;3.57;1.13;;;15.60;99.90;;;;;;5075220;28;20459;-81
2020/12/23 04:00:41;;;;;;;2.20;0.73;;;15.60;99.90;;;;;;5074501;28;20438;-82
2020/12/23 04:03:07;;;;;;;2.40;0.90;;;15.60;99.90;;;;;;5074301;28;20701;-80
2020/12/23 04:05:34;;;;;;;2.03;0.60;;;15.50;99.90;;;;;;5074437;28;20438;-82
2020/12/23 04:08:01;;;;;;;2.53;0.87;;;15.50;99.90;;;;;;5074722;28;20796;-80
2020/12/23 04:10:28;;;;;;;2.37;0.83;;;15.50;99.90;;;;;;5075065;28;20448;-81
2020/12/23 04:12:54;;;;;;;2.30;0.70;;;15.50;99.90;;;;;;5074901;28;20515;-81
2020/12/23 04:15:21;;;;;;;2.10;0.80;;;15.60;99.90;;;;;;5074803;28;21009;-80
2020/12/23 04:17:47;;;;;;;2.67;0.90;;;15.50;99.90;;;;;;5076360;28;20456;-81
2020/12/23 04:20:14;;;;;;;2.40;0.73;;;15.50;99.90;;;;;;5077280;28;20479;-81
2020/12/23 04:22:41;;;;;;;2.33;1.20;;;15.50;99.90;;;;;;5075575;28;20480;-81
2020/12/23 04:25:09;;;;;;;2.53;0.90;;;15.50;99.90;;;;;;5076239;28;20505;-81
2020/12/23 04:27:35;;;;;;;3.03;1.00;;;15.40;99.90;;;;;;5076212;28;20937;-79
2020/12/23 04:30:03;;;;;;;3.17;0.83;;;15.40;99.90;;;;;;5083086;28;20526;-84
2020/12/23 04:32:29;;;;;;;2.40;1.00;;;15.40;99.90;;;;;;5074832;28;20867;-81
2020/12/23 04:34:56;;;;;;;2.40;0.87;;;15.50;99.90;;;;;;5074909;28;20496;-84
2020/12/23 04:37:22;;;;;;;2.50;0.97;;;15.40;99.90;;;;;;5074443;28;20443;-81
2020/12/23 04:39:50;;;;;;;2.70;1.00;;;15.40;99.90;;;;;;5074310;28;20431;-81
2020/12/23 04:42:16;;;;;;;2.77;1.10;;;15.40;99.90;;;;;;5076355;28;20472;-81
2020/12/23 04:44:43;;;;;;;2.57;0.80;;;15.30;99.90;;;;;;5074076;28;20459;-82
2020/12/23 04:47:14;;;;;;;3.87;1.17;;;15.20;99.90;;;;;;5074039;28;20450;-83
2020/12/23 04:49:46;;;;;;;3.37;0.90;;;15.20;99.90;;;;;;5060891;28;20455;-84
2020/12/23 04:52:14;;;;;;;2.57;0.93;;;15.30;99.90;;;;;;5075345;28;20475;-81
2020/12/23 04:54:41;;;;;;;2.57;1.00;;;15.10;99.90;;;;;;5075422;28;20494;-82
2020/12/23 04:57:10;;;;;;;2.77;0.83;;;15.10;99.90;;;;;;5074934;28;20519;-81
2020/12/23 04:59:36;;;;;;;2.60;1.13;;;15.10;99.90;;;;;;5074342;28;20422;-82
2020/12/23 05:02:03;;;;;;;2.70;0.90;;;15.10;99.90;;;;;;5073821;28;20434;-82
2020/12/23 05:04:29;;;;;;;2.77;0.90;;;15.00;99.90;;;;;;5075233;28;20446;-80
2020/12/23 05:07:04;;;;;;;2.30;0.73;;;14.90;99.90;;;;;;5074570;28;20496;-81
2020/12/23 05:09:31;;;;;;;3.30;1.10;;;14.90;99.90;;;;;;5074399;28;20421;-81
2020/12/23 05:11:58;;;;;;;2.87;1.17;;;14.90;99.90;;;;;;5074573;28;20457;-81
2020/12/23 05:14:27;;;;;;;2.30;0.90;;;14.90;99.90;;;;;;5073750;28;21081;-81
2020/12/23 05:16:54;;;;;;;2.30;0.83;;;14.80;99.90;;;;;;5074512;28;20472;-82
2020/12/23 05:19:21;;;;;;;2.60;1.03;;;14.90;99.90;;;;;;5079612;28;20448;-83
2020/12/23 05:21:47;;;;;;;4.73;1.60;;;14.90;99.90;;;;;;5075161;28;20518;-82
2020/12/23 05:24:14;;;;;;;3.40;1.20;;;15.00;99.90;;;;;;5075285;28;20448;-83
2020/12/23 05:26:43;;;;;;;2.73;1.20;;;15.00;99.90;;;;;;5075511;28;20480;-82
2020/12/23 05:29:11;;;;;;;3.23;1.10;;;15.00;99.90;;;;;;5072196;28;20434;-83
2020/12/23 05:31:39;;;;;;;2.70;1.20;;;14.90;99.90;;;;;;5072910;28;20518;-83
2020/12/23 05:34:06;;;;;;;2.90;1.30;;;15.00;99.90;;;;;;5073701;28;20514;-82
2020/12/23 05:36:35;;;;;;;3.03;0.83;;;15.00;99.90;;;;;;5074533;28;20900;-82
2020/12/23 05:39:04;;;;;;;3.43;1.00;;;15.00;99.90;;;;;;5074483;28;20907;-82
2020/12/23 05:41:31;;;;;;;2.60;1.00;;;15.00;99.90;;;;;;5073706;28;20434;-82
2020/12/23 05:43:59;;;;;;;2.50;0.80;;;15.00;99.90;;;;;;5074190;28;20520;-82
2020/12/23 05:46:25;;;;;;;2.70;1.20;;;15.00;99.90;;;;;;5074222;28;20446;-81
2020/12/23 05:48:53;;;;;;;3.13;1.23;;;15.10;99.90;;;;;;5074530;28;20807;-81
2020/12/23 05:51:20;;;;;;;3.60;1.70;;;15.10;99.90;;;;;;5074148;28;20462;-81
2020/12/23 05:53:47;;;;;;;2.67;1.00;;;15.10;99.90;;;;;;5074426;28;20450;-82
2020/12/23 05:56:13;;;;;;;3.30;1.00;;;15.00;99.90;;;;;;5076119;28;20462;-80
2020/12/23 05:58:40;;;;;;;3.10;0.80;;;15.00;99.90;;;;;;5075028;28;20438;-82
2020/12/23 06:01:08;;;;;;;3.37;0.97;;;15.00;99.90;;;;;;5082576;28;20533;-81
2020/12/23 06:03:55;;;;;;;2.83;0.90;;;15.00;99.90;;;;;;5082160;28;20854;-82
2020/12/23 06:06:24;;;;;;;4.33;1.10;;;15.00;99.90;;;;;;5073983;28;20935;-82
2020/12/23 06:08:53;;;;;;;2.57;0.80;;;14.90;99.90;;;;;;5073969;28;20963;-81
2020/12/23 06:11:34;;;;;;;5.50;1.20;;;14.90;99.90;;;;;;5075031;28;20491;-82
2020/12/23 06:14:12;;;;;;;2.90;1.40;;;14.90;99.90;;;;;;5074559;28;20451;-82
2020/12/23 06:16:40;;;;;;;2.87;0.93;;;14.80;99.90;;;;;;5074311;28;20480;-81
2020/12/23 06:19:09;;;;;;;3.33;0.97;;;14.80;99.90;;;;;;5073953;28;20423;-81
2020/12/23 06:21:36;;;;;;;2.43;1.00;;;14.80;99.90;;;;;;5074720;28;20893;-82
2020/12/23 06:24:05;;;;;;;2.83;0.97;;;14.90;99.90;;;;;;5074791;28;20435;-82
2020/12/23 06:26:34;;;;;;;6.40;1.10;;;14.80;99.90;;;;;;5078215;28;20477;-81
2020/12/23 06:29:03;;;;;;;2.93;0.90;;;14.70;99.90;;;;;;5082705;28;20415;-80
2020/12/23 06:31:32;;;;;;;3.10;1.10;;;14.80;99.90;;;;;;5078703;28;20430;-82
2020/12/23 06:33:59;;;;;;;2.93;1.27;;;14.70;99.90;;;;;;5075556;28;20462;-82
2020/12/23 06:36:34;;;;;;;3.67;0.93;;;14.80;99.90;;;;;;5055215;28;20498;-81
2020/12/23 06:39:24;;;;;;;2.27;0.90;;;14.80;99.90;;;;;;5064923;28;20452;-82
2020/12/23 06:41:51;;;;;;;2.73;1.10;;;14.80;99.90;;;;;;5075788;28;20430;-82
2020/12/23 06:44:18;;;;;;;2.60;1.20;;;14.80;99.90;;;;;;5076833;28;20460;-80
2020/12/23 06:47:07;;;;;;;3.13;1.43;;;14.80;99.90;;;;;;5081723;28;20441;-81
2020/12/23 06:49:39;;;;;;;3.03;1.03;;;14.80;99.90;;;;;;5079053;28;20472;-81
2020/12/23 06:52:31;;;;;;;3.00;0.83;;;14.80;99.90;;;;;;5073747;28;20434;-82
2020/12/23 06:55:01;;;;;;;2.50;0.80;;;14.70;99.90;;;;;;5073945;28;20459;-82
2020/12/23 06:57:46;;;;;;;2.73;1.10;;;14.70;99.90;;;;;;5074351;28;20446;-82
2020/12/23 07:00:14;;;;;;;2.20;1.00;;;14.80;99.90;;;;;;5077826;28;20462;-82
2020/12/23 07:02:43;;;;;;;2.60;1.10;;;14.70;99.90;;;;;;5078687;28;20457;-83
2020/12/23 07:05:10;;;;;;;2.90;0.97;;;14.80;99.90;;;;;;5077646;28;20434;-82
2020/12/23 07:07:39;;;;;;;2.70;1.20;;;14.70;99.90;;;;;;5076620;28;20843;-83
2020/12/23 07:10:10;;;;;;;3.43;1.37;;;14.80;99.90;;;;;;5077403;28;20448;-82
2020/12/23 07:12:39;;;;;;;3.13;1.40;;;14.80;99.90;;;;;;5077691;28;20452;-82
2020/12/23 07:15:07;;;;;;;2.30;0.90;;;14.90;99.90;;;;;;5077536;28;20495;-82
2020/12/23 07:17:35;;;;;;;2.60;1.10;;;14.80;99.90;;;;;;5080868;28;20434;-79
2020/12/23 07:20:04;;;;;;;2.33;0.90;;;14.90;99.90;;;;;;5076520;28;20858;-80
2020/12/23 07:22:32;;;;;;;2.77;0.80;;;14.90;99.90;;;;;;5076073;28;20764;-83
2020/12/23 07:25:01;;;;;;;2.70;0.90;;;14.90;99.90;;;;;;5077710;28;20944;-83
2020/12/23 07:27:28;;;;;;;3.23;1.30;;;14.90;99.90;;;;;;5077690;28;20458;-80
2020/12/23 07:29:57;;;;;;;2.93;1.60;;;14.90;99.90;;;;;;5076104;28;20527;-81
2020/12/23 07:32:24;;;;;;;5.27;1.27;;;14.90;99.90;;;;;;5089899;28;20479;-82
2020/12/23 07:34:52;;;;;;;4.00;1.10;;;14.90;99.90;;;;;;5080131;28;20462;-82
2020/12/23 07:37:18;;;;;;;3.00;1.37;;;14.90;99.90;;;;;;5077906;28;20468;-82
2020/12/23 07:39:48;;;;;;;3.60;0.97;;;14.80;99.90;;;;;;5079154;28;20435;-82
2020/12/23 07:42:23;;;;;;;3.17;1.33;;;14.80;99.90;;;;;;5083140;28;20431;-80
2020/12/23 07:44:50;;;;;;;2.90;0.80;;;14.80;99.90;;;;;;5075098;28;20941;-82
2020/12/23 07:47:24;;;;;;;2.60;1.20;;;14.80;99.90;;;;;;5078198;28;20570;-81
2020/12/23 07:50:00;;;;;;;3.30;1.17;;;14.80;99.90;;;;;;5076355;28;20444;-82
2020/12/23 07:52:27;;;;;;;3.40;1.10;;;14.80;99.90;;;;;;5078621;28;20456;-80
2020/12/23 07:54:54;;;;;;;2.93;1.00;;;14.80;99.90;;;;;;5074783;28;20486;-80
2020/12/23 07:57:29;;;;;;;3.90;1.43;;;14.90;99.90;;;;;;5077701;28;20467;-80
2020/12/23 08:00:05;;;;;;;4.90;1.20;;;14.90;99.90;;;;;;5079261;28;20968;-80
2020/12/23 08:02:33;;;;;;;2.97;1.23;;;14.90;99.90;;;;;;5078094;28;20426;-79
2020/12/23 08:04:59;;;;;;;3.20;1.37;;;14.80;99.90;;;;;;5080952;28;20427;-80
2020/12/23 08:07:27;;;;;;;2.43;0.93;;;14.90;99.90;;;;;;5079778;28;21131;-81
2020/12/23 08:09:54;;;;;;;2.70;1.00;;;14.90;99.90;;;;;;5080121;28;20452;-81
2020/12/23 08:12:21;;;;;;;3.00;1.60;;;14.90;99.90;;;;;;5081289;28;20795;-80
2020/12/23 08:14:49;;;;;;;4.43;1.70;;;14.90;99.90;;;;;;5078477;28;20438;-85
2020/12/23 08:17:22;;;;;;;3.70;1.50;;;15.00;99.90;;;;;;5078502;28;20500;-80
2020/12/23 08:20:02;;;;;;;5.33;1.57;;;15.00;99.90;;;;;;5077190;28;20529;-80
2020/12/23 08:22:29;;;;;;;4.40;1.67;;;15.00;99.90;;;;;;5079949;28;20539;-80
2020/12/23 08:25:05;;;;;;;3.80;1.90;;;15.10;99.90;;;;;;5080142;28;20433;-80
2020/12/23 08:27:33;;;;;;;4.00;1.80;;;15.10;99.90;;;;;;5080952;28;20454;-81
2020/12/23 08:30:04;;;;;;;4.97;2.87;;;15.10;99.90;;;;;;5080822;28;20542;-81
2020/12/23 08:32:36;;;;;;;3.40;1.60;;;15.10;99.90;;;;;;5080742;28;20578;-80
2020/12/23 08:35:04;;;;;;;2.80;1.50;;;15.20;99.90;;;;;;5076598;28;20466;-80
2020/12/23 08:37:34;;;;;;;3.37;1.63;;;15.30;99.90;;;;;;5076544;28;20450;-80
2020/12/23 08:40:05;;;;;;;4.93;1.50;;;15.40;99.90;;;;;;5081733;28;20438;-80
2020/12/23 08:42:32;;;;;;;4.10;1.63;;;15.40;99.90;;;;;;5080534;28;20440;-80
2020/12/23 08:44:59;;;;;;;5.07;2.10;;;15.40;99.90;;;;;;5081854;28;20448;-80
2020/12/23 08:47:31;;;;;;;3.10;1.50;;;15.50;99.90;;;;;;5080190;28;20534;-82
2020/12/23 08:49:58;;;;;;;5.67;1.77;;;15.50;99.90;;;;;;5077111;28;20572;-82
2020/12/23 08:52:26;;;;;;;2.97;1.20;;;15.50;99.90;;;;;;5076414;28;20473;-82
2020/12/23 08:54:53;;;;;;;3.40;1.60;;;15.50;99.90;;;;;;5079750;28;20914;-82
2020/12/23 08:57:25;;;;;;;3.70;1.57;;;15.50;99.90;;;;;;5085685;28;20472;-82
2020/12/23 08:59:53;;;;;;;3.20;1.40;;;15.50;99.90;;;;;;5077819;28;20430;-81
2020/12/23 09:02:20;;;;;;;2.83;1.13;;;15.50;99.90;;;;;;5084518;28;20439;-80
2020/12/23 09:04:47;;;;;;;3.43;1.40;;;15.50;99.90;;;;;;5086342;28;20450;-80
2020/12/23 09:07:23;;;;;;;2.80;1.00;;;15.50;99.90;;;;;;5086001;28;20478;-82
2020/12/23 09:09:50;;;;;;;2.53;1.00;;;15.60;99.90;;;;;;5082275;28;20508;-81
2020/12/23 09:12:23;;;;;;;6.90;1.73;;;15.60;99.90;;;;;;5080514;28;20471;-81
2020/12/23 09:14:49;;;;;;;9.03;2.40;;;15.60;99.90;;;;;;5080647;28;20510;-81
2020/12/23 09:17:23;;;;;;;13.50;2.80;;;15.60;99.90;;;;;;5079336;28;20468;-81
2020/12/23 09:20:02;;;;;;;10.87;3.00;;;15.60;99.90;;;;;;5075719;28;20495;-81
2020/12/23 09:22:33;;;;;;;14.70;3.30;;;15.60;99.90;;;;;;5073105;28;20464;-79
2020/12/23 09:25:27;;;;;;;18.97;3.47;;;15.60;99.90;;;;;;5076126;28;20444;-81
2020/12/23 09:27:54;;;;;;;22.50;3.47;;;15.70;99.90;;;;;;5027939;28;20498;-82
2020/12/23 09:30:32;;;;;;;32.73;4.90;;;15.70;99.90;;;;;;5075879;28;20572;-82
2020/12/23 09:32:59;;;;;;;21.80;4.03;;;15.70;99.90;;;;;;5076692;28;20704;-82
2020/12/23 09:35:28;;;;;;;15.50;3.83;;;15.80;99.90;;;;;;5073420;28;20479;-81
2020/12/23 09:38:09;;;;;;;22.00;3.63;;;15.80;99.90;;;;;;5072266;28;20426;-80
2020/12/23 09:40:36;;;;;;;24.50;4.50;;;15.80;99.90;;;;;;5072068;28;20859;-80
2020/12/23 09:43:08;;;;;;;11.73;3.00;;;15.80;99.90;;;;;;5072092;28;20452;-81
2020/12/23 09:45:34;;;;;;;21.33;4.73;;;15.80;99.90;;;;;;5058845;28;20493;-82
2020/12/23 09:48:01;;;;;;;23.53;4.60;;;15.90;99.90;;;;;;5072842;28;20452;-82
2020/12/23 09:50:31;;;;;;;17.47;3.27;;;15.90;99.90;;;;;;5075136;28;20444;-81
2020/12/23 09:52:57;;;;;;;7.90;2.90;;;16.00;99.90;;;;;;5075415;28;20432;-81
2020/12/23 09:55:24;;;;;;;11.30;2.50;;;15.90;99.90;;;;;;5075288;28;20536;-81
2020/12/23 09:57:51;;;;;;;18.37;4.00;;;15.90;99.90;;;;;;5076819;28;20752;-81
2020/12/23 10:00:19;;;;;;;9.70;2.70;;;16.00;99.90;;;;;;5075743;28;20448;-82
2020/12/23 10:02:45;;;;;;;41.17;7.23;;;16.00;99.90;;;;;;5075230;28;20939;-80
2020/12/23 10:05:12;;;;;;;15.43;4.53;;;16.00;99.90;;;;;;5077604;28;20444;-81
2020/12/23 10:07:40;;;;;;;14.67;3.30;;;16.00;99.90;;;;;;5076542;28;20451;-81
2020/12/23 10:10:07;;;;;;;8.10;2.20;;;16.00;99.90;;;;;;5073789;28;20423;-81
2020/12/23 10:12:34;;;;;;;6.27;2.00;;;16.00;99.90;;;;;;5077343;28;20925;-83
2020/12/23 10:15:01;;;;;;;4.07;1.80;;;15.90;99.90;;;;;;5078613;28;20427;-81
2020/12/23 10:17:27;;;;;;;5.63;1.60;;;15.90;99.90;;;;;;5060196;28;20455;-81
2020/12/23 10:19:54;;;;;;;4.03;1.37;;;15.90;99.90;;;;;;5068723;28;20427;-82
2020/12/23 10:22:20;;;;;;;3.23;1.70;;;15.90;99.90;;;;;;5074954;28;20444;-81
2020/12/23 10:24:48;;;;;;;4.83;2.50;;;15.90;99.90;;;;;;5074810;28;20533;-81
2020/12/23 10:27:14;;;;;;;4.60;2.10;;;16.00;99.90;;;;;;5074966;28;20635;-79
2020/12/23 10:29:41;;;;;;;6.83;2.90;;;16.10;99.90;;;;;;5074181;28;20450;-81
2020/12/23 10:32:08;;;;;;;3.70;1.37;;;16.00;99.90;;;;;;5073282;28;20452;-79
2020/12/23 10:34:34;;;;;;;4.47;1.97;;;16.10;99.90;;;;;;5078851;28;20425;-79
2020/12/23 10:37:01;;;;;;;4.70;1.63;;;16.10;99.90;;;;;;5074659;28;20781;-80
2020/12/23 10:39:40;;;;;;;3.23;1.40;;;16.20;99.90;;;;;;5076755;28;20458;-80
2020/12/23 10:42:13;;;;;;;3.70;1.67;;;16.20;99.90;;;;;;5083856;28;20414;-81
2020/12/23 10:44:40;;;;;;;3.37;1.47;;;16.30;99.90;;;;;;5079175;28;20464;-82
2020/12/23 10:47:06;;;;;;;4.17;1.77;;;16.30;99.90;;;;;;5072495;28;20540;-83
2020/12/23 10:49:33;;;;;;;2.73;1.23;;;16.40;99.90;;;;;;5074507;28;20427;-84
2020/12/23 10:52:00;;;;;;;4.10;1.60;;;16.50;99.90;;;;;;5075427;28;20456;-82
2020/12/23 10:54:28;;;;;;;3.50;1.20;;;16.60;99.90;;;;;;5074724;28;20889;-83
2020/12/23 10:56:55;;;;;;;3.00;1.43;;;16.60;99.90;;;;;;5073830;28;20918;-82
2020/12/23 10:59:24;;;;;;;4.73;1.53;;;16.70;99.90;;;;;;5074721;28;20427;-81
2020/12/23 11:01:54;;;;;;;4.10;1.37;;;16.80;99.90;;;;;;5080289;28;20456;-82
2020/12/23 11:04:20;;;;;;;4.80;1.27;;;16.80;99.90;;;;;;5075257;28;20777;-82
2020/12/23 11:06:48;;;;;;;3.63;1.60;;;16.80;99.90;;;;;;5076786;28;20439;-81
2020/12/23 11:09:15;;;;;;;5.17;2.80;;;16.80;99.90;;;;;;5080004;28;20517;-82
2020/12/23 11:11:41;;;;;;;4.37;2.10;;;16.90;99.90;;;;;;5075370;28;20905;-81
2020/12/23 11:14:08;;;;;;;4.13;1.70;;;17.00;99.90;;;;;;5075060;28;20423;-82
2020/12/23 11:16:35;;;;;;;4.50;1.80;;;16.90;99.90;;;;;;5074523;28;20492;-81
2020/12/23 11:19:10;;;;;;;7.90;2.97;;;16.80;99.90;;;;;;5073878;28;20452;-83
2020/12/23 11:21:36;;;;;;;4.33;1.90;;;16.80;99.90;;;;;;5074821;28;20542;-80
2020/12/23 11:24:03;;;;;;;4.20;1.83;;;17.00;99.90;;;;;;5072388;28;20453;-82
2020/12/23 11:26:30;;;;;;;3.73;1.63;;;17.00;99.90;;;;;;5073296;28;21040;-76
2020/12/23 11:28:56;;;;;;;5.03;2.13;;;16.90;99.90;;;;;;5068904;28;21079;-76
2020/12/23 11:31:23;;;;;;;3.70;1.50;;;16.90;99.90;;;;;;5067376;28;20452;-76
2020/12/23 11:33:50;;;;;;;4.13;1.60;;;16.80;99.90;;;;;;5067543;28;21020;-76
2020/12/23 11:36:17;;;;;;;3.40;1.57;;;16.90;99.90;;;;;;5068512;28;20520;-76
2020/12/23 11:38:44;;;;;;;4.80;2.03;;;16.60;99.90;;;;;;5067559;28;20510;-76
2020/12/23 11:41:13;;;;;;;3.10;1.57;;;16.50;99.90;;;;;;5067854;28;20974;-76
2020/12/23 11:43:40;;;;;;;2.83;1.43;;;16.50;99.90;;;;;;5068803;28;20428;-85
2020/12/23 11:46:07;;;;;;;3.93;1.87;;;16.50;99.90;;;;;;5071904;28;20527;-76
2020/12/23 11:48:34;;;;;;;2.80;1.23;;;16.40;99.90;;;;;;5071350;28;20431;-80
2020/12/23 11:51:03;;;;;;;2.77;1.10;;;16.40;99.90;;;;;;5072276;28;20448;-76
2020/12/23 11:53:29;;;;;;;4.63;1.60;;;16.50;99.90;;;;;;5072192;28;20438;-77
2020/12/23 11:55:57;;;;;;;5.90;3.30;;;16.50;99.90;;;;;;5071306;28;20540;-77
2020/12/23 11:58:23;;;;;;;4.87;2.00;;;16.50;99.90;;;;;;5071645;28;20918;-77
2020/12/23 12:00:51;;;;;;;4.17;1.80;;;16.60;99.90;;;;;;5071832;28;20491;-77
2020/12/23 12:03:18;;;;;;;4.60;2.13;;;16.60;99.90;;;;;;5072337;28;20838;-77
2020/12/23 12:05:44;;;;;;;5.10;1.57;;;16.60;99.90;;;;;;5072092;28;21007;-77
2020/12/23 12:08:12;;;;;;;3.43;1.63;;;16.60;99.90;;;;;;5070969;28;20503;-76
2020/12/23 12:10:38;;;;;;;3.50;1.60;;;16.70;99.90;;;;;;5065290;28;20958;-76
2020/12/23 12:13:05;;;;;;;4.73;2.37;;;16.70;99.90;;;;;;5059898;28;20978;-77
2020/12/23 12:15:32;;;;;;;6.63;2.40;;;16.80;99.90;;;;;;5068809;28;20466;-76
2020/12/23 12:17:58;;;;;;;4.20;2.53;;;16.80;99.90;;;;;;5068553;28;20802;-84
2020/12/23 12:20:25;;;;;;;5.30;2.77;;;16.80;99.90;;;;;;5068259;28;20446;-77
2020/12/23 12:22:51;;;;;;;3.70;1.80;;;16.90;99.90;;;;;;5067706;28;20466;-76
2020/12/23 12:25:19;;;;;;;3.60;1.77;;;16.90;99.90;;;;;;5072882;28;20442;-82
2020/12/23 12:27:45;;;;;;;4.63;2.07;;;16.90;99.90;;;;;;5072508;28;20547;-82
2020/12/23 12:30:12;;;;;;;2.97;1.00;;;16.90;99.90;;;;;;5070659;28;20562;-80
2020/12/23 12:32:39;;;;;;;5.07;1.70;;;16.90;99.90;;;;;;5072214;28;20419;-82
2020/12/23 12:35:05;;;;;;;3.90;1.97;;;16.90;99.90;;;;;;5065825;28;20518;-82
2020/12/23 12:37:32;;;;;;;5.10;2.30;;;17.00;99.90;;;;;;5070870;28;20962;-82
2020/12/23 12:39:59;;;;;;;2.80;1.50;;;16.90;99.90;;;;;;5074247;28;20470;-78
2020/12/23 12:42:26;;;;;;;3.50;1.77;;;16.90;99.90;;;;;;5072202;28;20518;-77
2020/12/23 12:44:53;;;;;;;5.13;2.77;;;16.90;99.90;;;;;;5071665;28;20452;-78
2020/12/23 12:47:19;;;;;;;4.37;1.93;;;16.80;99.90;;;;;;5070895;28;20447;-78
2020/12/23 12:49:46;;;;;;;3.87;2.10;;;16.90;99.90;;;;;;5071067;28;20511;-79